Time;durP1;ratioP1;P1;durP2;ratioP2;P2;SDS_P1;SDS_P2;PMS_P1;PMS_P2;Temp;Humidity;BMP_temperature;BMP_pressure;BME280_temperature;BME280_humidity;BME280_pressure;Samples;Min_cycle;Max_cycle;Signal;HPM_P1;HPM_P2
2023/07/21 07:29:40;;;;;;;;;;;;;;;19.98;49.33;99288.13;1086812;54;19986;-83
2023/07/21 07:37:48;;;;;;;;;;;;;;;20.23;48.64;99290.78;1084677;54;19942;-80
2023/07/21 07:38:49;;;;;;;;;;;;;;;20.24;48.97;99286.16;1085475;39;20854;-82
2023/07/21 07:39:52;;;;;;;;;;;;;;;20.35;48.61;99295.47;1084114;54;19951;-81
2023/07/21 07:40:53;;;;;;;;;;;;;;;20.27;48.37;99294.69;1084189;54;19950;-81
2023/07/21 07:41:56;;;;;;;;;;;;;;;20.19;48.86;99291.47;1083717;46;20002;-80
2023/07/21 07:42:57;;;;;;;;;;;;;;;20.18;48.98;99297.94;1083601;47;19947;-80
2023/07/21 07:44:01;;;;;;;;;;;;;;;20.20;48.68;99298.53;1084483;54;19977;-80
2023/07/21 07:45:05;;;;;;;;;;;;;;;20.17;48.43;99293.56;1085073;39;20220;-81
2023/07/21 07:46:09;;;;;;;;;;;;;;;20.27;48.28;99293.88;1083977;47;19950;-80
2023/07/21 07:47:09;;;;;;;;;;;;;;;20.27;48.11;99294.69;1084437;39;20804;-80
2023/07/21 07:48:14;;;;;;;;;;;;;;;20.40;48.32;99293.69;1084261;54;19946;-79
2023/07/21 07:49:15;;;;;;;;;;;;;;;20.47;48.03;99293.59;1084523;54;20536;-82
2023/07/21 07:50:20;;;;;;;;;;;;;;;20.53;47.66;99291.88;1084497;47;19954;-81
2023/07/21 07:51:21;;;;;;;;;;;;;;;20.57;47.63;99290.38;1083993;47;19946;-81
2023/07/21 07:52:24;;;;;;;;;;;;;;;20.64;47.40;99290.28;1084767;39;20446;-81
2023/07/21 07:53:25;;;;;;;;;;;;;;;20.68;47.07;99284.16;1083617;47;20058;-80
2023/07/21 07:54:28;;;;;;;;;;;;;;;20.74;47.13;99285.13;1083778;54;19953;-80
2023/07/21 07:55:29;;;;;;;;;;;;;;;20.80;47.37;99286.09;1083141;54;20762;-80
2023/07/21 07:56:32;;;;;;;;;;;;;;;20.82;47.21;99286.72;1083757;47;19957;-80
2023/07/21 07:57:34;;;;;;;;;;;;;;;20.75;46.99;99294.13;1083595;47;19953;-81
2023/07/21 07:58:37;;;;;;;;;;;;;;;20.74;47.19;99293.28;1083746;47;19953;-82
2023/07/21 07:59:38;;;;;;;;;;;;;;;20.71;47.15;99297.25;1083524;54;19994;-83
2023/07/21 08:00:45;;;;;;;;;;;;;;;20.71;47.29;99299.97;1083764;47;19954;-84
2023/07/21 08:01:46;;;;;;;;;;;;;;;20.81;47.08;99298.63;1084371;47;20090;-81
2023/07/21 08:02:49;;;;;;;;;;;;;;;20.67;47.37;99304.22;1083702;47;19951;-81
2023/07/21 08:03:50;;;;;;;;;;;;;;;20.62;47.49;99303.25;1083645;54;19951;-81
2023/07/21 08:04:53;;;;;;;;;;;;;;;20.61;47.57;99302.41;1083808;54;19998;-81
2023/07/21 08:05:54;;;;;;;;;;;;;;;20.53;47.54;99309.00;1084131;39;20452;-79
2023/07/21 08:06:58;;;;;;;;;;;;;;;20.57;47.56;99309.38;1083319;54;20884;-82
2023/07/21 08:08:01;;;;;;;;;;;;;;;20.61;47.84;99304.31;1083099;47;19947;-81
2023/07/21 08:09:05;;;;;;;;;;;;;;;20.55;47.41;99306.88;1083134;54;19950;-82
2023/07/21 08:10:07;;;;;;;;;;;;;;;20.65;47.58;99306.34;1084181;39;20572;-82
2023/07/21 08:11:10;;;;;;;;;;;;;;;20.58;47.46;99302.88;1083604;54;19991;-82
2023/07/21 08:12:11;;;;;;;;;;;;;;;20.57;47.25;99309.38;1083431;54;19962;-82
2023/07/21 08:13:15;;;;;;;;;;;;;;;20.60;47.43;99317.03;1083287;54;20214;-82
2023/07/21 08:14:15;;;;;;;;;;;;;;;20.73;47.22;99314.19;1083447;47;19980;-82
2023/07/21 08:15:16;;;;;;;;;;;;;;;20.85;47.21;99310.72;1083477;54;20041;-82
2023/07/21 08:16:22;;;;;;;;;;;;;;;20.93;46.82;99317.69;1083340;54;19957;-83
2023/07/21 08:17:23;;;;;;;;;;;;;;;20.97;46.95;99314.28;1083734;47;20791;-82
2023/07/21 08:18:26;;;;;;;;;;;;;;;20.96;46.87;99318.06;1083554;47;20000;-82
2023/07/21 08:19:30;;;;;;;;;;;;;;;20.97;46.94;99311.56;1083991;54;20040;-83
2023/07/21 08:20:33;;;;;;;;;;;;;;;21.00;46.94;99316.53;1083819;47;19970;-80
2023/07/21 08:21:34;;;;;;;;;;;;;;;20.87;46.97;99309.41;1083980;47;20099;-80
2023/07/21 08:22:37;;;;;;;;;;;;;;;20.81;46.99;99310.34;1083514;47;19996;-80
2023/07/21 08:23:38;;;;;;;;;;;;;;;20.77;47.29;99311.03;1083802;54;19950;-81
2023/07/21 08:24:42;;;;;;;;;;;;;;;20.75;47.27;99310.44;1084026;47;19959;-80
2023/07/21 08:25:42;;;;;;;;;;;;;;;20.88;46.84;99316.50;1083282;54;20006;-80
2023/07/21 08:26:46;;;;;;;;;;;;;;;20.98;46.88;99309.69;1083398;47;19958;-80
2023/07/21 08:27:47;;;;;;;;;;;;;;;21.02;46.91;99314.44;1083474;54;19946;-80
2023/07/21 08:28:52;;;;;;;;;;;;;;;20.96;46.59;99320.78;1083178;47;19962;-81
2023/07/21 08:29:53;;;;;;;;;;;;;;;20.94;46.99;99317.47;1083710;39;20033;-80
2023/07/21 08:30:56;;;;;;;;;;;;;;;21.00;46.78;99319.25;1083350;54;20002;-82
2023/07/21 08:32:00;;;;;;;;;;;;;;;21.01;46.58;99320.91;1083606;47;19946;-82
2023/07/21 08:33:04;;;;;;;;;;;;;;;21.08;46.39;99314.53;1083687;47;19971;-80
2023/07/21 08:34:05;;;;;;;;;;;;;;;21.13;46.39;99315.50;1083330;47;19947;-81
2023/07/21 08:35:09;;;;;;;;;;;;;;;21.18;46.48;99303.94;1084032;54;19958;-81
2023/07/21 08:36:10;;;;;;;;;;;;;;;21.19;46.39;99311.03;1084536;47;19958;-82
2023/07/21 08:37:10;;;;;;;;;;;;;;;21.22;46.50;99309.72;1083876;54;20023;-83
2023/07/21 08:38:14;;;;;;;;;;;;;;;21.20;46.62;99307.25;1084524;39;20620;-79
2023/07/21 08:39:15;;;;;;;;;;;;;;;21.24;46.09;99305.75;1084216;47;19951;-81
2023/07/21 08:40:19;;;;;;;;;;;;;;;21.28;46.24;99309.63;1085280;47;20065;-80
2023/07/21 08:41:20;;;;;;;;;;;;;;;21.31;46.43;99303.75;1083214;31;20438;-79
2023/07/21 08:42:24;;;;;;;;;;;;;;;21.39;46.28;99302.59;1082413;54;19947;-80
2023/07/21 08:43:26;;;;;;;;;;;;;;;21.43;45.93;99301.03;1083643;54;20087;-81
2023/07/21 08:44:31;;;;;;;;;;;;;;;21.39;46.37;99299.88;1083471;47;20998;-79
2023/07/21 08:45:33;;;;;;;;;;;;;;;21.48;45.89;99303.91;1083636;54;20491;-80
2023/07/21 08:46:37;;;;;;;;;;;;;;;21.55;45.75;99302.94;1083641;47;19946;-81
2023/07/21 08:47:40;;;;;;;;;;;;;;;21.57;46.23;99296.19;1083531;47;19951;-81
2023/07/21 08:48:44;;;;;;;;;;;;;;;21.59;46.07;99299.56;1083673;54;19992;-83
2023/07/21 08:49:45;;;;;;;;;;;;;;;21.56;45.94;99310.03;1084638;46;19951;-82
2023/07/21 08:50:50;;;;;;;;;;;;;;;21.58;45.77;99310.63;1084245;54;19957;-82
2023/07/21 08:51:54;;;;;;;;;;;;;;;21.59;46.11;99305.00;1084379;54;19953;-80
2023/07/21 08:52:58;;;;;;;;;;;;;;;21.59;46.02;99307.72;1084355;47;19953;-83
2023/07/21 08:53:59;;;;;;;;;;;;;;;21.59;45.80;99309.59;1084657;46;20106;-80
2023/07/21 08:55:03;;;;;;;;;;;;;;;21.60;45.90;99305.81;1084298;54;19954;-81
2023/07/21 08:56:05;;;;;;;;;;;;;;;21.61;45.76;99308.31;1083466;47;19951;-81
2023/07/21 08:57:09;;;;;;;;;;;;;;;21.64;45.76;99318.69;1083785;47;19946;-80
2023/07/21 08:58:10;;;;;;;;;;;;;;;21.65;45.58;99314.91;1085391;39;20530;-80
2023/07/21 08:59:14;;;;;;;;;;;;;;;21.68;45.78;99312.78;1083734;54;19961;-81
2023/07/21 09:00:16;;;;;;;;;;;;;;;21.72;45.66;99314.00;1083476;54;19958;-80
2023/07/21 09:01:19;;;;;;;;;;;;;;;21.73;45.89;99310.19;1083894;54;19977;-80
2023/07/21 09:02:35;;;;;;;;;;;;;;;21.71;45.89;99305.00;1083476;47;20608;-79
2023/07/21 09:03:46;;;;;;;;;;;;;;;21.77;45.48;99305.94;1083223;54;19958;-79
2023/07/21 09:04:47;;;;;;;;;;;;;;;21.82;45.45;99308.78;1083008;54;19947;-79
2023/07/21 09:05:51;;;;;;;;;;;;;;;21.85;45.20;99308.28;1084163;54;20862;-85
2023/07/21 09:06:53;;;;;;;;;;;;;;;21.93;45.41;99304.41;1086236;47;19944;-81
2023/07/21 09:07:56;;;;;;;;;;;;;;;21.97;45.51;99308.28;1082778;54;19950;-82
2023/07/21 09:08:57;;;;;;;;;;;;;;;22.01;45.23;99308.66;1084266;54;19965;-78
2023/07/21 09:10:01;;;;;;;;;;;;;;;22.03;45.30;99309.22;1083714;54;19979;-80
2023/07/21 09:11:03;;;;;;;;;;;;;;;22.07;44.90;99310.41;1083201;54;19993;-83
2023/07/21 09:12:08;;;;;;;;;;;;;;;22.07;44.17;99310.41;1083786;47;19951;-84
2023/07/21 09:13:14;;;;;;;;;;;;;;;21.95;44.18;99313.16;1084760;47;19958;-82
2023/07/21 09:14:18;;;;;;;;;;;;;;;21.92;44.31;99314.44;1085363;39;20516;-81
2023/07/21 09:15:19;;;;;;;;;;;;;;;22.08;44.51;99306.63;1082610;47;19977;-82
2023/07/21 09:16:21;;;;;;;;;;;;;;;22.18;43.83;99314.19;1084367;54;19951;-82
2023/07/21 09:17:24;;;;;;;;;;;;;;;22.26;44.05;99314.66;1085955;54;19981;-84
2023/07/21 09:18:26;;;;;;;;;;;;;;;22.34;43.58;99320.78;1084499;47;20015;-82
2023/07/21 09:19:32;;;;;;;;;;;;;;;22.36;43.16;99324.09;1084992;39;20379;-81
2023/07/21 09:20:33;;;;;;;;;;;;;;;22.35;42.70;99322.44;1084635;47;19950;-81
2023/07/21 09:21:37;;;;;;;;;;;;;;;22.33;43.00;99321.84;1082819;47;20521;-80
2023/07/21 09:22:38;;;;;;;;;;;;;;;22.29;42.85;99314.16;1082171;54;19946;-82
2023/07/21 09:23:42;;;;;;;;;;;;;;;22.29;42.67;99319.59;1084677;39;20343;-81
2023/07/21 09:24:49;;;;;;;;;;;;;;;22.27;42.69;99319.03;1084503;54;19951;-81
2023/07/21 09:25:53;;;;;;;;;;;;;;;22.34;42.97;99313.44;1084875;54;19950;-82
2023/07/21 09:27:08;;;;;;;;;;;;;;;22.39;42.95;99323.59;1084423;47;19954;-84
2023/07/21 09:28:12;;;;;;;;;;;;;;;22.36;42.79;99326.81;1084552;47;19946;-81
2023/07/21 09:29:15;;;;;;;;;;;;;;;22.27;43.15;99320.91;1083502;54;19950;-79
2023/07/21 09:30:19;;;;;;;;;;;;;;;22.39;42.90;99313.56;1083873;39;20738;-82
2023/07/21 09:31:26;;;;;;;;;;;;;;;22.49;42.72;99312.94;1085455;39;20547;-83
2023/07/21 09:32:30;;;;;;;;;;;;;;;22.54;42.86;99313.06;1085889;39;20551;-84
2023/07/21 09:33:32;;;;;;;;;;;;;;;22.54;42.78;99315.78;1084190;54;20035;-80
2023/07/21 09:34:54;;;;;;;;;;;;;;;22.62;42.77;99311.88;1082875;54;20094;-81
2023/07/21 09:36:04;;;;;;;;;;;;;;;22.76;42.61;99317.84;1082778;54;19953;-84
2023/07/21 09:37:10;;;;;;;;;;;;;;;22.87;42.47;99308.78;1083165;47;19958;-80
2023/07/21 09:38:11;;;;;;;;;;;;;;;22.75;42.86;99310.75;1082861;54;19946;-83
2023/07/21 09:39:17;;;;;;;;;;;;;;;22.71;42.75;99310.41;1087050;39;20488;-81
2023/07/21 09:40:26;;;;;;;;;;;;;;;22.67;42.57;99311.16;1082830;46;19947;-81
2023/07/21 09:41:32;;;;;;;;;;;;;;;22.78;42.32;99309.44;1082414;54;20592;-80
2023/07/21 09:42:33;;;;;;;;;;;;;;;22.92;42.33;99305.31;1082652;54;20516;-81
2023/07/21 09:43:36;;;;;;;;;;;;;;;22.93;42.01;99314.34;1082117;47;19947;-81
2023/07/21 09:44:38;;;;;;;;;;;;;;;22.83;42.16;99314.97;1082033;54;19947;-80
2023/07/21 09:45:39;;;;;;;;;;;;;;;22.73;42.40;99302.00;1083414;54;19991;-81
2023/07/21 09:46:43;;;;;;;;;;;;;;;22.68;42.61;99305.44;1083705;39;20765;-82
2023/07/21 09:47:44;;;;;;;;;;;;;;;22.84;42.29;99306.56;1085095;47;19975;-84
2023/07/21 09:48:47;;;;;;;;;;;;;;;23.01;42.40;99308.50;1083253;51;20084;-83
2023/07/21 09:49:53;;;;;;;;;;;;;;;22.92;42.17;99304.50;1086976;54;20996;-85
2023/07/21 09:50:59;;;;;;;;;;;;;;;23.03;42.33;99303.63;1086498;46;19947;-85
2023/07/21 09:52:00;;;;;;;;;;;;;;;23.18;41.79;99303.94;1085497;47;20002;-84
2023/07/21 09:53:06;;;;;;;;;;;;;;;23.32;41.47;99303.63;1083721;54;19958;-86
2023/07/21 09:54:12;;;;;;;;;;;;;;;23.43;41.27;99299.16;1082422;54;20086;-80
2023/07/21 09:55:18;;;;;;;;;;;;;;;23.51;41.10;99301.47;1083930;39;20466;-83
2023/07/21 09:56:20;;;;;;;;;;;;;;;23.41;40.83;99295.84;1082773;54;19976;-80
2023/07/21 09:57:24;;;;;;;;;;;;;;;23.46;40.85;99302.19;1084227;54;19953;-83
2023/07/21 09:58:26;;;;;;;;;;;;;;;23.54;41.09;99295.50;1084075;47;20600;-86
2023/07/21 09:59:34;;;;;;;;;;;;;;;23.62;40.74;99302.44;1083870;46;19946;-84
2023/07/21 10:00:39;;;;;;;;;;;;;;;23.68;40.66;99302.28;1086099;46;20050;-80
2023/07/21 10:01:43;;;;;;;;;;;;;;;23.79;40.82;99297.81;1084766;54;19943;-80
2023/07/21 10:02:45;;;;;;;;;;;;;;;23.78;40.67;99298.88;1081887;47;19971;-81
2023/07/21 10:03:48;;;;;;;;;;;;;;;23.70;40.14;99299.31;1082209;47;19947;-82
2023/07/21 10:04:52;;;;;;;;;;;;;;;23.75;40.37;99293.91;1082587;54;19951;-82
2023/07/21 10:05:56;;;;;;;;;;;;;;;23.77;39.72;99297.22;1082198;54;19975;-80
2023/07/21 10:06:58;;;;;;;;;;;;;;;23.77;39.45;99297.22;1083225;54;19947;-81
2023/07/21 10:08:03;;;;;;;;;;;;;;;23.83;39.46;99295.41;1085586;47;19951;-85
2023/07/21 10:09:08;;;;;;;;;;;;;;;23.79;39.18;99286.91;1086224;54;20007;-86
2023/07/21 10:10:13;;;;;;;;;;;;;;;23.89;38.67;99285.38;1087191;47;19942;-85
2023/07/21 10:11:14;;;;;;;;;;;;;;;24.08;38.20;99291.41;1087001;47;19955;-87
2023/07/21 10:14:47;;;;;;;;;;;;;;;24.86;37.75;99283.06;1086493;54;20730;-88
2023/07/21 10:15:48;;;;;;;;;;;;;;;24.83;37.27;99282.75;1086419;47;19947;-87
2023/07/21 10:23:00;;;;;;;;;;;;;;;26.06;35.78;99265.63;1080707;47;19962;31
2023/07/21 10:24:01;;;;;;;;;;;;;;;25.90;35.20;99267.47;1087726;54;19942;-86
2023/07/21 10:25:05;;;;;;;;;;;;;;;26.01;35.63;99267.25;1088016;54;19967;-87
2023/07/21 10:27:11;;;;;;;;;;;;;;;25.93;36.14;99262.28;1087733;54;19942;-87
2023/07/21 10:30:44;;;;;;;;;;;;;;;25.96;35.08;99258.19;1085473;54;19943;-85
2023/07/21 10:31:52;;;;;;;;;;;;;;;25.90;35.15;99253.78;1087514;47;19982;-86
2023/07/21 10:32:55;;;;;;;;;;;;;;;25.50;35.79;99253.28;1090880;39;21215;-86
2023/07/21 10:34:03;;;;;;;;;;;;;;;25.45;35.84;99251.34;1086880;47;19945;-85
2023/07/21 10:35:08;;;;;;;;;;;;;;;25.66;35.64;99256.91;1090588;39;20840;-87
2023/07/21 10:36:15;;;;;;;;;;;;;;;26.00;35.19;99251.09;1086860;47;19965;-85
2023/07/21 10:37:18;;;;;;;;;;;;;;;25.80;35.61;99251.78;1086948;47;19978;-86
2023/07/21 10:38:26;;;;;;;;;;;;;;;25.88;35.56;99259.53;1086903;47;19961;-88
2023/07/21 10:39:31;;;;;;;;;;;;;;;26.09;35.64;99255.00;1086979;47;19939;-85
2023/07/21 10:40:32;;;;;;;;;;;;;;;25.95;35.52;99259.28;1086999;54;19966;-87
2023/07/21 10:41:33;;;;;;;;;;;;;;;26.06;35.00;99254.69;1088550;39;20627;-87
2023/07/21 10:42:37;;;;;;;;;;;;;;;26.35;35.00;99252.38;1087041;47;20038;-88
2023/07/21 10:43:37;;;;;;;;;;;;;;;26.61;34.47;99247.78;1086994;54;19992;-86
2023/07/21 10:44:42;;;;;;;;;;;;;;;26.64;34.10;99243.66;1086910;54;19977;-86
2023/07/21 10:45:49;;;;;;;;;;;;;;;26.31;34.11;99252.06;1086770;47;19950;-85
2023/07/21 10:46:53;;;;;;;;;;;;;;;26.59;33.44;99254.63;1086942;54;19947;-85
2023/07/21 10:49:02;;;;;;;;;;;;;;;26.75;33.04;99248.09;1087543;54;19935;-84
2023/07/21 10:50:05;;;;;;;;;;;;;;;26.68;33.31;99247.53;1086941;47;19962;-88
2023/07/21 10:51:08;;;;;;;;;;;;;;;26.73;32.94;99241.22;1087391;54;19946;-89
2023/07/21 10:52:09;;;;;;;;;;;;;;;26.99;33.01;99241.28;1087975;39;21128;-82
2023/07/21 10:53:13;;;;;;;;;;;;;;;27.30;32.44;99238.56;1087034;47;19973;-83
2023/07/21 10:54:16;;;;;;;;;;;;;;;27.44;32.13;99234.16;1088909;39;20586;-84
2023/07/21 10:55:20;;;;;;;;;;;;;;;27.62;31.93;99245.66;1086214;47;19938;-85
2023/07/21 10:56:22;;;;;;;;;;;;;;;27.63;31.88;99244.56;1086369;47;19939;-83
2023/07/21 10:57:26;;;;;;;;;;;;;;;27.77;31.74;99244.78;1086376;47;19994;-82
2023/07/21 10:58:32;;;;;;;;;;;;;;;27.43;31.74;99248.97;1087542;39;20322;-82
2023/07/21 10:59:36;;;;;;;;;;;;;;;27.32;31.42;99239.06;1086625;47;19938;-82
2023/07/21 11:00:45;;;;;;;;;;;;;;;26.85;31.51;99254.72;1086695;54;20054;-82
2023/07/21 11:01:46;;;;;;;;;;;;;;;26.59;32.01;99262.84;1086714;54;19973;-84
2023/07/21 11:02:55;;;;;;;;;;;;;;;26.53;32.03;99262.00;1086654;47;19938;-82
2023/07/21 11:03:57;;;;;;;;;;;;;;;26.54;32.07;99254.59;1086533;47;21119;-82
2023/07/21 11:05:02;;;;;;;;;;;;;;;26.81;31.72;99261.81;1086613;54;19943;-82
2023/07/21 11:06:03;;;;;;;;;;;;;;;26.75;32.18;99253.56;1086562;47;20016;-82
2023/07/21 11:07:06;;;;;;;;;;;;;;;26.91;32.00;99257.19;1086654;47;19942;-81
2023/07/21 11:08:10;;;;;;;;;;;;;;;26.81;32.20;99243.47;1086635;54;19946;-81
2023/07/21 11:09:14;;;;;;;;;;;;;;;26.75;32.29;99239.03;1086611;54;20029;-83
2023/07/21 11:10:17;;;;;;;;;;;;;;;26.44;32.81;99241.72;1086616;54;19942;-83
2023/07/21 11:11:22;;;;;;;;;;;;;;;26.35;33.21;99240.59;1087117;39;20684;-84
2023/07/21 11:12:23;;;;;;;;;;;;;;;26.30;33.30;99244.13;1086680;54;20752;-84
2023/07/21 11:13:27;;;;;;;;;;;;;;;26.62;32.97;99237.63;1086701;54;19943;-83
2023/07/21 11:14:27;;;;;;;;;;;;;;;26.57;32.75;99241.19;1086618;54;19942;-82
2023/07/21 11:15:31;;;;;;;;;;;;;;;26.69;32.58;99234.63;1086652;47;19968;-80
2023/07/21 11:16:31;;;;;;;;;;;;;;;26.47;32.62;99238.41;1086575;47;19973;-83
2023/07/21 11:17:35;;;;;;;;;;;;;;;26.51;32.28;99236.78;1086582;54;20730;-83
2023/07/21 11:18:39;;;;;;;;;;;;;;;26.59;31.94;99247.22;1086603;54;20737;-87
2023/07/21 11:19:43;;;;;;;;;;;;;;;26.45;31.80;99246.91;1086573;54;20824;-83
2023/07/21 11:20:47;;;;;;;;;;;;;;;26.20;31.72;99246.84;1086613;54;19968;-82
2023/07/21 11:21:51;;;;;;;;;;;;;;;26.12;31.76;99248.16;1086575;47;19954;-84
2023/07/21 11:22:52;;;;;;;;;;;;;;;26.29;31.61;99245.22;1086590;47;19942;-82
2023/07/21 11:24:00;;;;;;;;;;;;;;;26.39;31.73;99242.53;1086676;54;21040;-85
2023/07/21 11:25:07;;;;;;;;;;;;;;;26.38;31.53;99246.34;1086629;47;19943;-83
2023/07/21 11:26:13;;;;;;;;;;;;;;;26.38;31.53;99243.63;1086619;47;19949;-83
2023/07/21 11:27:15;;;;;;;;;;;;;;;26.52;31.54;99248.56;1086782;54;19950;-84
2023/07/21 11:28:19;;;;;;;;;;;;;;;26.53;31.53;99242.84;1086728;54;19946;-81
2023/07/21 11:29:20;;;;;;;;;;;;;;;26.57;31.42;99245.84;1086668;47;19995;-84
2023/07/21 11:30:23;;;;;;;;;;;;;;;26.30;32.12;99244.13;1086687;47;19963;-81
2023/07/21 11:31:25;;;;;;;;;;;;;;;26.16;32.05;99249.28;1086757;54;19946;-81
2023/07/21 11:32:28;;;;;;;;;;;;;;;26.00;32.71;99245.63;1086570;47;19939;-83
2023/07/21 11:33:39;;;;;;;;;;;;;;;25.99;32.50;99253.00;1086469;47;20784;-84
2023/07/21 11:34:43;;;;;;;;;;;;;;;26.19;32.53;99248.75;1086914;39;20697;-82
2023/07/21 11:35:45;;;;;;;;;;;;;;;26.24;32.73;99251.50;1086955;39;20289;-83
2023/07/21 11:36:50;;;;;;;;;;;;;;;26.21;32.56;99252.03;1086509;54;21162;-83
2023/07/21 11:37:51;;;;;;;;;;;;;;;26.29;32.59;99253.44;1086495;47;19939;-81
2023/07/21 11:38:58;;;;;;;;;;;;;;;26.24;32.63;99259.72;1086486;54;19955;-81
2023/07/21 11:40:03;;;;;;;;;;;;;;;26.35;32.54;99251.56;1086600;54;19942;-82
2023/07/21 11:41:07;;;;;;;;;;;;;;;26.35;32.17;99260.56;1086534;47;19938;-82
2023/07/21 11:42:10;;;;;;;;;;;;;;;26.37;32.37;99255.66;1087718;39;20682;-82
2023/07/21 11:43:15;;;;;;;;;;;;;;;26.45;32.35;99263.34;1086912;46;19938;-82
2023/07/21 11:44:19;;;;;;;;;;;;;;;26.52;32.36;99254.03;1087017;54;19966;-81
2023/07/21 11:45:39;;;;;;;;;;;;;;;26.36;31.99;99253.16;1086949;47;19938;-83
2023/07/21 11:46:40;;;;;;;;;;;;;;;26.33;31.91;99254.53;1087033;47;19943;-82
2023/07/21 11:47:43;;;;;;;;;;;;;;;26.25;32.01;99247.69;1087014;47;19943;-82
2023/07/21 11:48:48;;;;;;;;;;;;;;;26.33;31.50;99254.53;1086413;54;19943;-82
2023/07/21 11:49:55;;;;;;;;;;;;;;;26.16;31.29;99254.78;1088425;39;20227;-83
2023/07/21 11:50:56;;;;;;;;;;;;;;;26.31;31.48;99257.56;1086904;47;19938;-82
2023/07/21 11:52:02;;;;;;;;;;;;;;;26.08;31.61;99256.06;1086878;54;19943;-84
2023/07/21 11:53:05;;;;;;;;;;;;;;;26.00;31.59;99246.44;1086904;47;19967;-84
2023/07/21 11:54:19;;;;;;;;;;;;;;;25.73;31.79;99256.69;1086953;54;19943;-81
2023/07/21 11:55:20;;;;;;;;;;;;;;;25.69;31.78;99265.41;1086814;47;19949;-80
2023/07/21 11:56:23;;;;;;;;;;;;;;;25.83;31.80;99262.22;1086961;54;19949;-86
2023/07/21 11:57:27;;;;;;;;;;;;;;;25.76;31.98;99265.19;1086799;47;19942;-84
2023/07/21 11:58:32;;;;;;;;;;;;;;;25.77;31.84;99263.28;1086887;54;19985;-87
2023/07/21 11:59:34;;;;;;;;;;;;;;;25.91;31.87;99258.97;1086853;54;19947;-85
2023/07/21 12:00:37;;;;;;;;;;;;;;;25.90;31.96;99256.53;1086909;54;19968;-86
2023/07/21 12:01:38;;;;;;;;;;;;;;;25.85;32.10;99260.06;1087025;47;19945;-86
2023/07/21 12:02:42;;;;;;;;;;;;;;;25.51;32.37;99261.22;1087121;54;19947;-85
2023/07/21 12:03:43;;;;;;;;;;;;;;;25.34;32.62;99255.84;1087019;47;19942;-84
2023/07/21 12:04:47;;;;;;;;;;;;;;;25.48;32.57;99249.97;1087179;54;19950;-84
2023/07/21 12:05:49;;;;;;;;;;;;;;;25.57;32.39;99253.88;1087301;54;19942;-84
2023/07/21 12:06:53;;;;;;;;;;;;;;;25.73;32.31;99251.22;1087037;47;19998;-83
2023/07/21 12:07:53;;;;;;;;;;;;;;;25.79;32.11;99258.38;1087441;39;20257;-87
2023/07/21 12:08:54;;;;;;;;;;;;;;;25.81;32.23;99254.28;1087091;54;20009;-85
2023/07/21 12:09:58;;;;;;;;;;;;;;;25.61;32.59;99259.63;1087344;54;20024;-84
2023/07/21 12:10:59;;;;;;;;;;;;;;;25.43;32.46;99250.75;1087102;47;20097;-82
2023/07/21 12:12:02;;;;;;;;;;;;;;;25.27;33.05;99252.53;1089152;39;20667;-84
2023/07/21 12:13:05;;;;;;;;;;;;;;;25.14;33.22;99252.94;1087439;54;20689;-86
2023/07/21 12:14:09;;;;;;;;;;;;;;;25.22;33.12;99247.84;1087373;54;19942;-84
2023/07/21 12:15:11;;;;;;;;;;;;;;;25.41;33.48;99249.38;1087294;54;19942;-84
2023/07/21 12:16:14;;;;;;;;;;;;;;;25.42;33.30;99251.00;1087276;54;19966;-85
2023/07/21 12:17:15;;;;;;;;;;;;;;;25.42;33.38;99251.84;1087282;54;19965;-84
2023/07/21 12:18:18;;;;;;;;;;;;;;;25.40;33.40;99255.94;1086909;47;19942;-83
2023/07/21 12:19:19;;;;;;;;;;;;;;;25.44;33.32;99248.84;1087121;54;19943;-84
2023/07/21 12:20:23;;;;;;;;;;;;;;;25.37;33.19;99247.13;1087231;54;19947;-85
2023/07/21 12:21:24;;;;;;;;;;;;;;;25.41;33.56;99254.84;1087336;54;20729;-84
2023/07/21 12:22:27;;;;;;;;;;;;;;;25.25;33.69;99249.22;1086905;47;20010;-84
2023/07/21 12:23:28;;;;;;;;;;;;;;;25.02;34.11;99253.13;1087047;47;19942;-84
2023/07/21 12:24:31;;;;;;;;;;;;;;;25.01;33.88;99257.78;1087092;54;19946;-86
2023/07/21 12:25:33;;;;;;;;;;;;;;;24.85;34.50;99253.25;1091375;39;20690;-85
2023/07/21 12:26:37;;;;;;;;;;;;;;;24.89;34.28;99257.94;1087107;47;19942;-85
2023/07/21 12:27:38;;;;;;;;;;;;;;;24.79;34.61;99259.75;1087068;47;19967;-85
2023/07/21 12:28:44;;;;;;;;;;;;;;;24.90;34.41;99250.56;1087039;47;19942;-85
2023/07/21 12:29:45;;;;;;;;;;;;;;;24.90;34.24;99242.38;1086919;47;19942;-84
2023/07/21 12:30:48;;;;;;;;;;;;;;;24.81;34.61;99249.38;1087028;54;19943;-85
2023/07/21 12:31:49;;;;;;;;;;;;;;;24.77;34.45;99249.91;1087042;46;19943;-85
2023/07/21 12:32:53;;;;;;;;;;;;;;;24.91;34.46;99249.50;1087024;54;19942;-84
2023/07/21 12:33:53;;;;;;;;;;;;;;;24.94;34.58;99250.88;1087336;54;19973;-86
2023/07/21 12:34:57;;;;;;;;;;;;;;;24.85;34.60;99242.31;1087036;47;19950;-86
2023/07/21 12:35:57;;;;;;;;;;;;;;;24.78;34.18;99245.28;1087111;54;20281;-85
2023/07/21 12:37:01;;;;;;;;;;;;;;;24.82;34.31;99249.13;1087428;54;19943;-84
2023/07/21 12:38:02;;;;;;;;;;;;;;;24.92;34.53;99245.66;1087059;47;19950;-83
2023/07/21 12:39:09;;;;;;;;;;;;;;;25.01;34.48;99251.47;1087062;47;19950;-85
2023/07/21 12:40:12;;;;;;;;;;;;;;;25.03;34.41;99244.66;1087069;54;19994;-83
2023/07/21 12:41:16;;;;;;;;;;;;;;;25.05;34.31;99261.63;1087302;54;19949;-84
2023/07/21 12:42:17;;;;;;;;;;;;;;;24.72;34.62;99249.00;1086958;47;19942;-86
2023/07/21 12:43:21;;;;;;;;;;;;;;;24.83;34.26;99244.50;1087002;47;19951;-86
2023/07/21 12:44:24;;;;;;;;;;;;;;;24.79;34.24;99251.53;1087000;47;19942;-84
2023/07/21 12:45:27;;;;;;;;;;;;;;;24.58;34.90;99249.41;1086998;54;19943;-82
2023/07/21 12:46:28;;;;;;;;;;;;;;;24.68;34.79;99248.72;1087025;47;19942;-81
2023/07/21 12:47:32;;;;;;;;;;;;;;;24.54;34.85;99252.91;1087018;46;19968;-81
2023/07/21 12:48:33;;;;;;;;;;;;;;;24.65;34.73;99251.09;1087091;54;19950;-83
2023/07/21 12:49:34;;;;;;;;;;;;;;;24.80;34.26;99255.94;1086973;47;19977;-82
2023/07/21 12:50:38;;;;;;;;;;;;;;;24.85;34.39;99261.44;1087069;54;19962;-83
2023/07/21 12:51:38;;;;;;;;;;;;;;;24.61;34.53;99261.72;1087304;54;20026;-83
2023/07/21 12:52:42;;;;;;;;;;;;;;;24.50;34.79;99268.16;1087629;46;19967;-85
2023/07/21 12:53:42;;;;;;;;;;;;;;;24.40;35.03;99277.06;1087285;54;19953;-85
2023/07/21 12:54:46;;;;;;;;;;;;;;;24.35;35.48;99271.53;1087004;54;19942;-84
2023/07/21 12:55:50;;;;;;;;;;;;;;;24.28;35.38;99274.44;1086979;54;19942;-83
2023/07/21 12:56:53;;;;;;;;;;;;;;;24.21;35.53;99282.00;1087268;54;19943;-82
2023/07/21 12:57:54;;;;;;;;;;;;;;;24.38;35.10;99282.75;1089114;39;20664;-83
2023/07/21 12:58:57;;;;;;;;;;;;;;;24.38;35.48;99282.75;1087201;54;19942;-84
2023/07/21 13:00:01;;;;;;;;;;;;;;;24.34;35.53;99287.09;1087046;46;19942;-84
2023/07/21 13:01:05;;;;;;;;;;;;;;;24.42;35.44;99283.91;1086987;47;19943;-85
2023/07/21 13:02:06;;;;;;;;;;;;;;;24.31;35.47;99282.13;1086947;46;19943;-85
2023/07/21 13:03:09;;;;;;;;;;;;;;;23.98;36.05;99283.91;1087471;39;20588;-86
2023/07/21 13:04:12;;;;;;;;;;;;;;;24.10;36.03;99290.06;1087189;54;20708;-84
2023/07/21 13:05:15;;;;;;;;;;;;;;;24.08;35.95;99291.41;1087259;54;19965;-86
2023/07/21 13:06:16;;;;;;;;;;;;;;;24.09;36.02;99288.41;1089072;39;20554;-85
2023/07/21 13:07:20;;;;;;;;;;;;;;;23.91;36.18;99288.66;1087007;47;19966;-84
2023/07/21 13:08:21;;;;;;;;;;;;;;;23.92;36.40;99284.88;1086975;47;19942;-87
2023/07/21 13:09:24;;;;;;;;;;;;;;;23.97;36.11;99290.44;1087050;54;19942;-84
2023/07/21 13:10:25;;;;;;;;;;;;;;;24.07;36.00;99296.03;1087118;54;19942;-84
2023/07/21 13:11:29;;;;;;;;;;;;;;;24.02;36.05;99290.50;1087288;54;19950;-83
2023/07/21 13:12:29;;;;;;;;;;;;;;;23.94;35.80;99293.63;1087297;54;19950;-85
2023/07/21 13:13:33;;;;;;;;;;;;;;;24.07;36.11;99296.03;1086950;47;19942;-87
2023/07/21 13:14:33;;;;;;;;;;;;;;;23.81;36.89;99295.63;1087024;54;19967;-84
2023/07/21 13:15:39;;;;;;;;;;;;;;;23.51;38.32;99302.31;1086915;47;19943;-82
2023/07/21 13:16:40;;;;;;;;;;;;;;;23.56;38.61;99306.16;1087026;54;19950;-84
2023/07/21 13:17:44;;;;;;;;;;;;;;;23.28;39.95;99313.34;1087037;47;19973;-86
2023/07/21 13:18:44;;;;;;;;;;;;;;;23.33;39.96;99316.19;1087005;54;19942;-85
2023/07/21 13:19:48;;;;;;;;;;;;;;;23.30;40.11;99316.66;1086967;47;20936;-85